Time;durP1;ratioP1;P1;durP2;ratioP2;P2;SDS_P1;SDS_P2;PMS_P1;PMS_P2;Temp;Humidity;BMP_temperature;BMP_pressure;BME280_temperature;BME280_humidity;BME280_pressure;Samples;Min_cycle;Max_cycle;Signal;HPM_P1;HPM_P2
2022/12/27 00:00:14;;;;;;;76.60;41.53;;;;;;;8.75;100.00;101490.25;5039506;28;20465;-72
2022/12/27 00:02:40;;;;;;;78.18;44.00;;;;;;;8.75;100.00;101486.81;5048030;28;20040;-72
2022/12/27 00:05:07;;;;;;;73.63;46.15;;;;;;;8.74;100.00;101483.38;5052555;28;20036;-73
2022/12/27 00:07:33;;;;;;;82.70;45.95;;;;;;;8.73;100.00;101476.53;5054376;28;20052;-73
2022/12/27 00:09:59;;;;;;;73.55;46.45;;;;;;;8.70;100.00;101476.75;5050819;28;20071;-73
2022/12/27 00:12:24;;;;;;;85.30;46.38;;;;;;;8.66;100.00;101472.69;5051350;28;20033;-72
2022/12/27 00:14:50;;;;;;;87.07;47.42;;;;;;;8.66;100.00;101464.91;5044275;28;20810;-72
2022/12/27 00:17:15;;;;;;;92.18;48.22;;;;;;;8.67;100.00;101466.56;5044932;28;20051;-72
2022/12/27 00:19:40;;;;;;;91.13;47.00;;;;;;;8.67;100.00;101458.75;5043841;28;20025;-74
2022/12/27 00:22:06;;;;;;;86.43;47.63;;;;;;;8.67;100.00;101463.97;5041107;28;20442;-74
2022/12/27 00:24:34;;;;;;;93.80;48.78;;;;;;;8.69;100.00;101464.69;5046104;28;20029;-74
2022/12/27 00:26:59;;;;;;;94.45;46.88;;;;;;;8.71;100.00;101461.97;5047564;28;21364;-74
2022/12/27 00:29:24;;;;;;;90.93;48.00;;;;;;;8.72;100.00;101455.84;5050940;28;20024;-74
2022/12/27 00:31:50;;;;;;;86.85;46.60;;;;;;;8.69;100.00;101463.84;5033723;28;20139;-74
2022/12/27 00:34:15;;;;;;;82.07;45.88;;;;;;;8.66;100.00;101457.09;5047931;28;20059;-74
2022/12/27 00:36:41;;;;;;;91.60;48.47;;;;;;;8.64;100.00;101461.56;5047654;28;20144;-74
2022/12/27 00:39:06;;;;;;;86.38;46.65;;;;;;;8.67;100.00;101455.34;5048375;28;20033;-74
2022/12/27 00:41:32;;;;;;;93.82;47.53;;;;;;;8.68;100.00;101462.19;5049425;28;20028;-74
2022/12/27 00:43:57;;;;;;;94.70;49.03;;;;;;;8.67;100.00;101461.38;5050243;28;20420;-74
2022/12/27 00:46:23;;;;;;;93.63;49.80;;;;;;;8.70;100.00;101465.50;5046528;28;20123;-74
2022/12/27 00:48:48;;;;;;;98.93;50.75;;;;;;;8.71;100.00;101465.41;5052655;28;20098;-74
2022/12/27 00:51:16;;;;;;;98.75;51.33;;;;;;;8.74;100.00;101470.38;5042951;28;20029;-74
2022/12/27 00:53:42;;;;;;;96.32;48.38;;;;;;;8.76;100.00;101475.47;5041771;28;20395;-74
2022/12/27 00:56:11;;;;;;;85.68;42.35;;;;;;;8.75;100.00;101474.66;5047136;28;20360;-74
2022/12/27 00:58:37;;;;;;;78.60;41.28;;;;;;;8.72;100.00;101474.88;5048595;28;20467;-74
2022/12/27 01:01:06;;;;;;;84.68;39.65;;;;;;;8.72;100.00;101469.66;5047889;28;20037;-74
2022/12/27 01:03:32;;;;;;;84.18;38.42;;;;;;;8.71;100.00;101474.97;5048429;28;20054;-74
2022/12/27 01:06:03;;;;;;;81.00;39.50;;;;;;;8.74;100.00;101479.94;5054933;28;20468;-74
2022/12/27 01:08:29;;;;;;;83.97;37.63;;;;;;;8.77;100.00;101483.16;5041013;28;20083;-74
2022/12/27 01:10:54;;;;;;;80.38;36.83;;;;;;;8.77;100.00;101477.97;5051593;28;20486;-74
2022/12/27 01:13:20;;;;;;;75.45;35.00;;;;;;;8.76;100.00;101473.72;5048007;28;20119;-74
2022/12/27 01:15:45;;;;;;;62.63;31.52;;;;;;;8.75;100.00;101474.66;5049375;28;20222;-74
2022/12/27 01:18:10;;;;;;;76.10;34.78;;;;;;;8.74;100.00;101475.59;5052659;28;20094;-74
2022/12/27 01:20:37;;;;;;;70.03;34.92;;;;;;;8.73;100.00;101473.09;5046055;28;20137;-74
2022/12/27 01:23:02;;;;;;;79.40;36.45;;;;;;;8.72;100.00;101463.63;5061875;28;20040;-74
2022/12/27 01:25:28;;;;;;;66.57;34.63;;;;;;;8.69;100.00;101459.50;5057018;28;20531;-74
2022/12/27 01:27:53;;;;;;;71.00;33.67;;;;;;;8.68;100.00;101463.03;5049211;28;20033;-74
2022/12/27 01:30:19;;;;;;;69.15;34.97;;;;;;;8.70;100.00;101461.16;5053768;28;20035;-74
2022/12/27 01:32:44;;;;;;;77.18;33.20;;;;;;;8.70;100.00;101466.34;5058568;28;20037;-74
2022/12/27 01:35:10;;;;;;;75.05;34.55;;;;;;;8.70;100.00;101468.13;5057584;28;20033;-74
2022/12/27 01:37:35;;;;;;;70.00;32.10;;;;;;;8.69;100.00;101469.88;5058388;28;20037;-74
2022/12/27 01:40:00;;;;;;;76.28;34.20;;;;;;;8.71;100.00;101469.78;5054272;28;20499;-74
2022/12/27 01:45:32;;;;;;;70.20;32.97;;;;;;;8.72;100.00;101476.63;5049422;28;20048;-74
2022/12/27 01:48:03;;;;;;;65.50;30.52;;;;;;;8.72;100.00;101476.63;5043993;28;20480;-74
2022/12/27 01:50:35;;;;;;;65.60;31.00;;;;;;;8.73;100.00;101488.69;5050983;28;20480;-74
2022/12/27 01:53:00;;;;;;;67.38;31.50;;;;;;;8.73;100.00;101486.09;5054650;28;20040;-74
2022/12/27 01:55:29;;;;;;;67.18;32.70;;;;;;;8.72;100.00;101490.44;5054386;28;20025;-74
2022/12/27 01:58:02;;;;;;;60.08;30.05;;;;;;;8.73;100.00;101497.31;5070133;28;20036;-74
2022/12/27 02:00:27;;;;;;;64.65;31.63;;;;;;;8.73;100.00;101493.88;5066760;28;20032;-73
2022/12/27 02:02:53;;;;;;;67.93;33.20;;;;;;;8.73;100.00;101492.13;5065445;28;20024;-74
2022/12/27 02:05:20;;;;;;;72.22;34.30;;;;;;;8.72;100.00;101489.63;5059878;28;20059;-74
2022/12/27 02:08:07;;;;;;;80.57;34.38;;;;;;;8.74;100.00;101493.78;5070192;28;20764;-74
2022/12/27 02:10:32;;;;;;;;;;;;;;;8.71;100.00;101493.16;5061634;28;20121;-74
2022/12/27 02:12:58;;;;;;;68.07;32.38;;;;;;;8.72;100.00;101492.22;5065011;28;19924;-74
2022/12/27 02:15:24;;;;;;;65.85;29.83;;;;;;;8.73;100.00;101491.28;5071142;28;20039;-74
2022/12/27 02:17:50;;;;;;;71.35;32.15;;;;;;;8.73;100.00;101494.72;5069108;28;20421;-74
2022/12/27 02:20:18;;;;;;;64.65;31.30;;;;;;;8.72;100.00;101492.22;5069959;28;20461;-74
2022/12/27 02:26:01;;;;;;;70.25;32.20;;;;;;;8.70;100.00;101486.31;5065724;28;20097;-74
2022/12/27 02:28:45;;;;;;;66.10;31.98;;;;;;;8.70;100.00;101489.72;5067777;28;20070;-74
2022/12/27 02:31:27;;;;;;;63.70;29.67;;;;;;;8.71;100.00;101493.16;5065177;28;20129;-74
2022/12/27 02:33:56;;;;;;;65.80;31.25;;;;;;;8.71;100.00;101486.19;5064776;28;20044;-74
2022/12/27 02:36:32;;;;;;;68.22;31.40;;;;;;;8.69;100.00;101488.06;5064611;28;20064;-74
2022/12/27 02:39:00;;;;;;;71.47;33.03;;;;;;;8.68;100.00;101483.81;5059505;28;20028;-74
2022/12/27 02:57:07;;;;;;;59.28;29.38;;;;;;;8.70;100.00;101487.13;5066621;28;20120;-73
2022/12/27 02:58:50;;;;;;;60.30;29.02;;;;;;;8.71;100.00;101494.00;5067730;28;20079;-74
2022/12/27 03:04:29;;;;;;;67.07;30.00;;;;;;;8.70;100.00;101492.31;5069290;28;20113;-74
2022/12/27 03:07:07;;;;;;;63.97;28.85;;;;;;;8.70;100.00;101499.28;5047571;28;20032;-74
2022/12/27 03:15:55;;;;;;;63.03;30.98;;;;;;;8.69;100.00;101503.66;5075387;28;20438;-74
2022/12/27 03:18:24;;;;;;;62.85;30.52;;;;;;;8.69;100.00;101503.66;5070386;28;20059;-74
2022/12/27 03:26:25;;;;;;;61.25;29.60;;;;;;;8.69;100.00;101498.47;5071671;28;20442;-74
2022/12/27 03:34:34;;;;;;;61.17;30.40;;;;;;;8.64;100.00;101503.16;5073066;28;20047;-74
2022/12/27 03:40:17;;;;;;;64.57;30.80;;;;;;;8.62;100.00;101499.81;5065575;28;20455;-74
2022/12/27 03:49:10;;;;;;;73.80;34.15;;;;;;;8.58;100.00;101493.19;5071243;28;20040;-74
2022/12/27 03:52:05;;;;;;;67.78;32.28;;;;;;;8.59;100.00;101481.84;5075097;28;20029;-74
2022/12/27 03:54:37;;;;;;;72.53;32.40;;;;;;;8.63;100.00;101491.91;5073339;28;20039;-74
2022/12/27 03:57:25;;;;;;;55.35;28.38;;;;;;;8.64;100.00;101482.34;5071469;28;20536;-74
2022/12/27 03:59:50;;;;;;;81.00;35.67;;;;;;;8.67;100.00;101486.50;5069117;28;20032;-74
2022/12/27 04:02:16;;;;;;;82.88;36.42;;;;;;;8.67;100.00;101491.72;5076441;28;20026;-74
2022/12/27 04:04:41;;;;;;;73.03;34.90;;;;;;;8.67;100.00;101486.50;5070725;28;20430;-74
2022/12/27 04:07:07;;;;;;;70.57;34.38;;;;;;;8.67;100.00;101487.34;5064240;28;20032;-74
2022/12/27 04:36:54;;;;;;;131.73;47.85;;;;;;;8.61;100.00;101503.34;5067734;28;20048;-74
2022/12/27 04:39:20;;;;;;;130.43;47.75;;;;;;;8.59;100.00;101500.03;5064575;28;20036;-75
2022/12/27 04:56:05;;;;;;;170.60;53.15;;;;;;;8.45;100.00;101493.22;5003133;28;20060;-74
2022/12/27 04:58:31;;;;;;;148.98;49.95;;;;;;;8.46;100.00;101494.06;5013704;28;20515;-74
2022/12/27 05:03:48;;;;;;;144.65;46.17;;;;;;;8.42;100.00;101501.22;5001435;28;20507;-74
2022/12/27 05:06:14;;;;;;;142.43;47.47;;;;;;;8.44;100.00;101499.34;5006379;28;20065;-75
2022/12/27 05:14:14;;;;;;;115.35;40.30;;;;;;;8.52;100.00;101510.00;5000220;28;20053;-75
2022/12/27 05:16:42;;;;;;;173.52;48.40;;;;;;;8.52;100.00;101512.59;4998558;28;20034;-75
2022/12/27 05:19:10;;;;;;;118.20;40.15;;;;;;;8.53;100.00;101511.66;5045997;28;20040;-75
2022/12/27 05:25:33;;;;;;;118.07;42.10;;;;;;;8.54;100.00;101522.91;5069320;28;20399;-75
2022/12/27 05:27:16;;;;;;;154.48;45.83;;;;;;;8.57;100.00;101526.13;5066858;28;20059;-75
2022/12/27 05:29:41;;;;;;;139.98;46.55;;;;;;;8.58;100.00;101526.94;5059808;28;20028;-75
2022/12/27 05:32:07;;;;;;;122.95;39.00;;;;;;;8.59;100.00;101531.22;5060189;28;20028;-75
2022/12/27 05:34:32;;;;;;;209.73;49.08;;;;;;;8.58;100.00;101514.78;5062855;28;20116;-75
2022/12/27 05:36:57;;;;;;;210.45;50.50;;;;;;;8.57;100.00;101518.31;5068751;28;20073;-75
2022/12/27 05:39:23;;;;;;;193.13;50.60;;;;;;;8.55;100.00;101520.19;5066239;28;20422;-75
2022/12/27 05:41:48;;;;;;;169.65;48.42;;;;;;;8.54;100.00;101518.53;5069682;28;20032;-75
2022/12/27 05:44:13;;;;;;;169.02;48.65;;;;;;;8.51;100.00;101525.69;5065364;28;20044;-75
2022/12/27 05:46:39;;;;;;;168.88;48.13;;;;;;;8.49;100.00;101525.00;5046289;28;20540;-75
2022/12/27 05:49:04;;;;;;;166.23;48.05;;;;;;;8.46;100.00;101535.59;5066680;28;20036;-75
2022/12/27 05:51:30;;;;;;;141.73;45.13;;;;;;;8.44;100.00;101532.28;5066044;28;20032;-75
2022/12/27 05:53:55;;;;;;;158.43;45.50;;;;;;;8.44;100.00;101532.28;5066188;28;20051;-75
2022/12/27 05:56:21;;;;;;;149.77;47.00;;;;;;;8.43;100.00;101525.44;5069918;28;20040;-75
2022/12/27 05:58:47;;;;;;;174.13;48.58;;;;;;;8.43;100.00;101528.84;5065642;28;20609;-75
2022/12/27 06:01:15;;;;;;;165.50;49.17;;;;;;;8.43;100.00;101530.63;5066107;28;20024;-74
2022/12/27 06:03:41;;;;;;;166.85;46.00;;;;;;;8.42;100.00;101534.16;5067623;28;20033;-75
2022/12/27 06:06:08;;;;;;;154.80;47.17;;;;;;;8.41;100.00;101527.28;5063794;28;20036;-75
2022/12/27 06:08:34;;;;;;;172.18;47.08;;;;;;;8.41;100.00;101535.09;5067032;28;20613;-75
2022/12/27 06:11:04;;;;;;;154.95;46.85;;;;;;;8.42;100.00;101531.56;5068907;28;20130;-75
2022/12/27 06:13:30;;;;;;;140.93;42.55;;;;;;;8.43;100.00;101535.81;5039487;28;20043;-75
2022/12/27 06:15:59;;;;;;;167.07;48.00;;;;;;;8.44;100.00;101534.88;5048554;28;20032;-75
2022/12/27 06:18:24;;;;;;;149.30;46.03;;;;;;;8.46;100.00;101536.44;5066908;28;20025;-74
2022/12/27 06:20:50;;;;;;;144.38;45.33;;;;;;;8.47;100.00;101537.25;5068541;28;20043;-74
2022/12/27 06:23:15;;;;;;;141.95;46.20;;;;;;;8.47;100.00;101548.47;5046035;28;20539;-74
2022/12/27 06:25:40;;;;;;;151.82;48.00;;;;;;;8.51;100.00;101554.28;5045647;28;20028;-74
2022/12/27 06:28:06;;;;;;;144.07;46.70;;;;;;;8.51;100.00;101556.88;5067369;28;20031;-74
2022/12/27 06:30:31;;;;;;;139.23;44.05;;;;;;;8.52;100.00;101555.94;5067881;28;20032;-74
2022/12/27 06:32:57;;;;;;;117.30;42.80;;;;;;;8.53;100.00;101563.63;5075985;28;20028;-73
2022/12/27 06:35:22;;;;;;;131.10;43.22;;;;;;;8.54;100.00;101565.28;5071073;28;20138;-74
2022/12/27 06:37:47;;;;;;;121.93;39.67;;;;;;;8.56;100.00;101560.81;5076789;28;20487;-74
2022/12/27 06:40:13;;;;;;;137.45;41.15;;;;;;;8.58;100.00;101565.91;5078136;28;20440;-74
2022/12/27 06:42:38;;;;;;;95.53;36.10;;;;;;;8.59;100.00;101567.56;5069983;28;20028;-74
2022/12/27 06:45:05;;;;;;;152.00;43.35;;;;;;;8.61;100.00;101578.69;5070127;28;20028;-74
2022/12/27 06:47:31;;;;;;;174.02;44.83;;;;;;;8.61;100.00;101569.13;5067091;28;20171;-74
2022/12/27 06:49:56;;;;;;;140.98;46.92;;;;;;;8.60;100.00;101583.06;5068761;28;20143;-74
2022/12/27 06:52:22;;;;;;;143.63;45.33;;;;;;;8.59;100.00;101593.56;5069947;28;20072;-74
2022/12/27 06:54:47;;;;;;;125.22;42.85;;;;;;;8.58;100.00;101589.28;5072623;28;20068;-74
2022/12/27 06:57:13;;;;;;;132.70;42.55;;;;;;;8.59;100.00;101593.56;5073990;28;20044;-74
2022/12/27 06:59:38;;;;;;;128.43;43.92;;;;;;;8.59;100.00;101593.56;5077338;28;20143;-74
2022/12/27 07:02:04;;;;;;;133.65;43.60;;;;;;;8.60;100.00;101592.63;5070094;28;20510;-74
2022/12/27 07:04:29;;;;;;;112.25;42.22;;;;;;;8.62;100.00;101591.56;5070959;28;20032;-74
2022/12/27 07:06:55;;;;;;;115.28;40.20;;;;;;;8.64;100.00;101592.31;5070512;28;20037;-74
2022/12/27 07:09:20;;;;;;;116.47;41.03;;;;;;;8.66;100.00;101594.81;5070381;28;20493;-74
2022/12/27 07:11:46;;;;;;;117.53;40.08;;;;;;;8.68;100.00;101594.69;5072123;28;20036;-74
2022/12/27 07:14:11;;;;;;;120.25;40.30;;;;;;;8.70;100.00;101588.47;5070405;28;20271;-74
2022/12/27 07:16:37;;;;;;;98.60;38.50;;;;;;;8.69;100.00;101586.78;5070343;28;20116;-74
2022/12/27 07:19:03;;;;;;;127.13;40.63;;;;;;;8.69;100.00;101589.41;5075405;28;20483;-74
2022/12/27 07:21:28;;;;;;;118.07;38.00;;;;;;;8.70;100.00;101592.81;5075219;28;20140;-74
2022/12/27 07:23:54;;;;;;;114.22;40.42;;;;;;;8.73;100.00;101598.66;5082672;28;20370;-74
2022/12/27 07:26:23;;;;;;;103.35;38.28;;;;;;;8.75;100.00;101596.78;5062792;28;20040;-74
2022/12/27 07:28:51;;;;;;;119.18;41.70;;;;;;;8.77;100.00;101596.66;5072458;28;20460;-74
2022/12/27 07:31:21;;;;;;;114.10;41.60;;;;;;;8.79;100.00;101606.03;5068806;28;20040;-74
2022/12/27 07:33:47;;;;;;;114.90;42.75;;;;;;;8.81;100.00;101608.53;5077177;28;20451;-74
2022/12/27 07:36:15;;;;;;;125.95;42.55;;;;;;;8.84;100.00;101606.53;5069656;28;20052;-74
2022/12/27 07:38:41;;;;;;;135.27;45.60;;;;;;;8.80;100.00;101612.88;5045431;28;20032;-73
2022/12/27 07:41:07;;;;;;;136.85;42.63;;;;;;;8.80;100.00;101612.88;5071071;28;20405;-74
2022/12/27 07:43:34;;;;;;;127.43;44.33;;;;;;;8.82;100.00;101618.81;5069645;28;20480;-73
2022/12/27 07:46:08;;;;;;;141.65;46.88;;;;;;;8.86;100.00;101622.03;5069900;28;20142;-73
2022/12/27 07:48:34;;;;;;;156.63;52.00;;;;;;;8.88;100.00;101621.00;5068759;28;20029;-73
2022/12/27 07:51:00;;;;;;;186.68;60.75;;;;;;;8.89;100.00;101620.06;5071548;28;20028;-73
2022/12/27 07:53:25;;;;;;;163.88;56.47;;;;;;;8.92;100.00;101622.44;5074466;28;20106;-73
2022/12/27 07:55:52;;;;;;;184.20;57.72;;;;;;;8.95;100.00;101622.22;5067446;28;20059;-73
2022/12/27 07:58:19;;;;;;;193.52;61.80;;;;;;;8.98;100.00;101628.97;5065638;28;20036;-73
2022/12/27 08:00:49;;;;;;;176.38;56.17;;;;;;;8.98;100.00;101628.97;5065629;28;20039;-73
2022/12/27 08:03:15;;;;;;;195.55;61.70;;;;;;;8.98;100.00;101632.38;5072191;28;20033;-73
2022/12/27 08:05:49;;;;;;;186.25;60.33;;;;;;;8.94;100.00;101632.72;5069418;28;20094;-74
2022/12/27 08:08:16;;;;;;;186.48;61.28;;;;;;;8.93;100.00;101642.31;5066832;28;20029;-74
2022/12/27 08:10:42;;;;;;;191.80;60.22;;;;;;;8.93;100.00;101639.69;5069452;28;20063;-74
2022/12/27 08:13:08;;;;;;;165.88;56.15;;;;;;;8.97;100.00;101633.34;5072716;28;20128;-73
2022/12/27 08:15:35;;;;;;;163.25;53.97;;;;;;;9.01;100.00;101640.91;5069165;28;20111;-74
2022/12/27 08:18:00;;;;;;;160.85;53.08;;;;;;;8.99;100.00;101639.25;5063779;28;20200;-74
2022/12/27 08:20:26;;;;;;;151.98;51.65;;;;;;;9.04;100.00;101645.91;5068072;28;20530;-73
2022/12/27 08:22:51;;;;;;;160.05;50.42;;;;;;;9.08;100.00;101636.97;5068467;28;20546;-74
2022/12/27 08:25:17;;;;;;;145.25;49.35;;;;;;;9.15;100.00;101641.63;5066543;28;20115;-75
2022/12/27 08:27:42;;;;;;;134.27;45.60;;;;;;;9.15;100.00;101638.19;5067434;28;20024;-74
2022/12/27 08:30:08;;;;;;;144.27;46.60;;;;;;;9.16;100.00;101639.84;5051177;28;20051;-74
2022/12/27 08:32:34;;;;;;;124.03;46.30;;;;;;;9.12;100.00;101638.41;5068222;28;20036;-74
2022/12/27 08:34:59;;;;;;;125.45;48.10;;;;;;;9.11;100.00;101637.56;5067929;28;20028;-74
2022/12/27 08:37:25;;;;;;;126.82;49.22;;;;;;;9.14;100.00;101639.13;5068188;28;20034;-74
2022/12/27 08:39:50;;;;;;;123.70;49.70;;;;;;;9.12;100.00;101643.59;5075524;28;20027;-74
2022/12/27 08:42:15;;;;;;;102.85;41.35;;;;;;;9.10;100.00;101642.88;5067974;28;20028;-74
2022/12/27 08:44:41;;;;;;;91.68;37.42;;;;;;;9.11;100.00;101647.97;5066894;28;20064;-74
2022/12/27 08:47:06;;;;;;;65.85;29.95;;;;;;;9.09;100.00;101639.44;5067378;28;20591;-75
2022/12/27 08:49:32;;;;;;;57.90;28.45;;;;;;;9.10;100.00;101645.47;5066975;28;20036;-75
2022/12/27 08:51:57;;;;;;;61.72;27.98;;;;;;;9.09;100.00;101644.66;5066826;28;20468;-74
2022/12/27 08:54:23;;;;;;;60.60;28.55;;;;;;;9.07;100.00;101654.31;5066261;28;20032;-74
2022/12/27 08:56:48;;;;;;;53.83;26.13;;;;;;;9.08;100.00;101649.97;5069018;28;20048;-74
2022/12/27 08:59:14;;;;;;;52.22;24.83;;;;;;;9.10;100.00;101650.69;5048551;28;20393;-75
2022/12/27 09:01:39;;;;;;;52.17;25.40;;;;;;;9.13;100.00;101653.91;5067232;28;20025;-74
2022/12/27 09:04:05;;;;;;;53.60;25.05;;;;;;;9.19;100.00;101653.47;5043149;28;20150;-74
2022/12/27 09:06:30;;;;;;;56.92;25.92;;;;;;;9.21;100.00;101659.41;5069338;28;20047;-75
2022/12/27 09:08:56;;;;;;;49.75;25.70;;;;;;;9.21;100.00;101666.38;5067365;28;20033;-74
2022/12/27 09:11:28;;;;;;;51.70;24.50;;;;;;;9.20;100.00;101659.50;5064102;28;20434;-75
2022/12/27 09:13:54;;;;;;;62.95;28.42;;;;;;;9.23;100.00;101672.31;5068922;28;20062;-74
2022/12/27 09:16:21;;;;;;;63.78;28.10;;;;;;;9.28;100.00;101670.22;5066758;28;20036;-74
2022/12/27 09:18:49;;;;;;;55.00;27.55;;;;;;;9.33;100.00;101670.72;5062565;28;20044;-73
2022/12/27 09:21:16;;;;;;;64.28;31.05;;;;;;;9.40;100.00;101674.56;5061620;28;20040;-72
2022/12/27 09:23:43;;;;;;;73.53;33.40;;;;;;;9.43;100.00;101668.31;5070261;28;20048;-73
2022/12/27 09:26:14;;;;;;;68.82;30.67;;;;;;;9.48;100.00;101674.00;5046372;28;20037;-73
2022/12/27 09:28:41;;;;;;;73.95;33.33;;;;;;;9.52;100.00;101670.25;5072073;28;20086;-72
2022/12/27 09:31:08;;;;;;;90.65;39.75;;;;;;;9.58;100.00;101672.41;5067707;28;20036;-72
2022/12/27 09:33:34;;;;;;;85.53;37.13;;;;;;;9.61;100.00;101667.84;5065460;28;20047;-73
2022/12/27 09:36:21;;;;;;;89.97;39.78;;;;;;;9.61;100.00;101670.44;5067607;28;20029;-72
2022/12/27 09:38:48;;;;;;;91.25;39.58;;;;;;;9.68;100.00;101672.59;5060695;28;20416;-73
2022/12/27 09:41:19;;;;;;;93.30;39.13;;;;;;;9.75;100.00;101666.03;5066961;28;20032;-72
2022/12/27 09:44:22;;;;;;;96.57;43.65;;;;;;;9.79;100.00;101665.69;5064067;28;20085;-73
2022/12/27 09:47:18;;;;;;;104.60;42.25;;;;;;;9.93;100.00;101667.28;5001860;28;20457;-72
2022/12/27 09:49:57;;;;;;;94.32;39.95;;;;;;;10.01;100.00;101659.75;5004473;28;20461;-72
2022/12/27 09:52:31;;;;;;;93.45;41.05;;;;;;;10.05;100.00;101666.41;5010594;28;20042;-73
2022/12/27 09:55:41;;;;;;;92.85;40.30;;;;;;;10.16;100.00;101673.44;5007757;28;20104;-73
2022/12/27 09:58:49;;;;;;;89.10;39.50;;;;;;;10.22;100.00;101671.25;4982771;28;20050;-73
2022/12/27 10:01:20;;;;;;;97.20;41.50;;;;;;;10.16;100.00;101666.44;4987553;28;20100;-74
2022/12/27 10:03:45;;;;;;;86.15;40.70;;;;;;;10.20;100.00;101669.69;4984489;28;20113;-74
2022/12/27 10:06:17;;;;;;;90.55;39.67;;;;;;;10.27;100.00;101661.31;4983694;28;20034;-73
2022/12/27 10:09:05;;;;;;;89.85;41.08;;;;;;;10.38;100.00;101662.28;4990850;28;20429;-73
2022/12/27 10:11:38;;;;;;;86.50;41.03;;;;;;;10.38;100.00;101662.28;4989596;28;20088;-73
2022/12/27 10:14:13;;;;;;;85.32;39.97;;;;;;;10.42;100.00;101659.31;4990945;28;20422;-73
2022/12/27 10:16:49;;;;;;;88.22;42.45;;;;;;;10.42;100.00;101659.31;4993439;28;20072;-70
2022/12/27 10:19:15;;;;;;;89.35;41.42;;;;;;;10.49;100.00;101660.53;5001619;28;20525;-69
2022/12/27 10:22:24;;;;;;;82.05;39.72;;;;;;;10.51;100.00;101660.41;4997845;28;20132;-72
2022/12/27 10:24:55;;;;;;;90.65;42.85;;;;;;;10.54;100.00;101652.38;5035826;28;20441;-72
2022/12/27 10:27:24;;;;;;;92.45;43.47;;;;;;;10.55;100.00;101643.59;5032640;28;20148;-72
2022/12/27 10:29:52;;;;;;;86.35;40.67;;;;;;;10.59;100.00;101650.25;5028767;28;20037;-72
2022/12/27 10:32:18;;;;;;;91.28;42.80;;;;;;;10.64;100.00;101646.34;5049992;28;20536;-72
2022/12/27 10:34:44;;;;;;;99.18;44.58;;;;;;;10.68;100.00;101654.78;5064916;28;20127;-72
2022/12/27 10:37:14;;;;;;;94.97;44.28;;;;;;;10.70;100.00;101650.28;5064235;28;20033;-73
2022/12/27 10:39:40;;;;;;;81.65;38.92;;;;;;;10.74;100.00;101650.88;5065794;28;20056;-73
2022/12/27 10:42:34;;;;;;;80.75;40.58;;;;;;;10.75;100.00;101655.13;5067043;28;20040;-73
2022/12/27 10:45:32;;;;;;;82.55;40.20;;;;;;;10.74;100.00;101649.09;5063694;28;20036;-72
2022/12/27 10:48:15;;;;;;;88.03;41.05;;;;;;;10.77;100.00;101646.25;5064742;28;20024;-72
2022/12/27 10:50:57;;;;;;;94.97;41.33;;;;;;;10.79;100.00;101641.75;5065144;28;20484;-72
2022/12/27 10:53:29;;;;;;;88.38;42.40;;;;;;;10.83;100.00;101642.34;5065268;28;20068;-72
2022/12/27 10:56:07;;;;;;;89.07;42.88;;;;;;;10.83;100.00;101647.56;5068515;28;20106;-73
2022/12/27 10:58:42;;;;;;;91.53;43.38;;;;;;;10.89;100.00;101644.47;5065591;28;20025;-72
2022/12/27 11:01:23;;;;;;;102.73;49.73;;;;;;;10.94;100.00;101645.78;5056572;28;20024;-73
2022/12/27 11:03:49;;;;;;;101.03;47.35;;;;;;;11.01;100.00;101638.31;5067927;28;20357;-72
2022/12/27 11:06:22;;;;;;;97.90;46.10;;;;;;;11.05;100.00;101638.91;5066637;28;20035;-73
2022/12/27 11:08:47;;;;;;;98.53;46.97;;;;;;;10.93;100.00;101640.66;5058277;28;20379;-72
2022/12/27 11:11:23;;;;;;;102.80;49.47;;;;;;;10.86;100.00;101640.34;5066794;28;20029;-72
2022/12/27 11:13:49;;;;;;;114.13;49.17;;;;;;;10.83;100.00;101644.97;5062962;28;20036;-73
2022/12/27 11:16:15;;;;;;;110.53;50.28;;;;;;;10.84;100.00;101639.63;5067059;28;20036;-73
2022/12/27 11:18:45;;;;;;;111.50;51.08;;;;;;;10.87;100.00;101638.56;5067127;28;20036;-73
2022/12/27 11:21:13;;;;;;;104.43;50.30;;;;;;;10.90;100.00;101633.91;5067508;28;20585;-73
2022/12/27 11:23:44;;;;;;;114.20;51.33;;;;;;;10.93;100.00;101643.28;5067655;28;20103;-73
2022/12/27 11:26:19;;;;;;;110.28;50.55;;;;;;;10.95;100.00;101637.00;5046425;28;20041;-72
2022/12/27 11:28:57;;;;;;;122.15;52.63;;;;;;;10.96;100.00;101638.66;5068981;28;20573;-73
2022/12/27 11:31:37;;;;;;;115.43;53.92;;;;;;;10.96;100.00;101640.44;5066102;28;20042;-72
2022/12/27 11:34:12;;;;;;;119.53;55.05;;;;;;;10.89;100.00;101632.25;5067459;28;20041;-73
2022/12/27 11:36:39;;;;;;;;;;;;;;;10.82;100.00;101628.50;5068888;28;20119;-73
2022/12/27 11:39:06;;;;;;;114.20;52.22;;;;;;;10.89;100.00;101623.59;5068797;28;20273;-73
2022/12/27 11:41:52;;;;;;;124.65;55.80;;;;;;;10.95;100.00;101616.13;5068003;28;20134;-73
2022/12/27 11:44:28;;;;;;;121.63;54.78;;;;;;;10.94;100.00;101621.47;5071516;28;20491;-73
2022/12/27 11:47:07;;;;;;;140.73;58.83;;;;;;;10.89;100.00;101611.41;5065009;28;20043;-73
2022/12/27 11:49:37;;;;;;;135.95;58.30;;;;;;;10.85;100.00;101620.44;5065733;28;20060;-73
2022/12/27 11:52:21;;;;;;;137.95;60.35;;;;;;;10.83;100.00;101618.88;5068300;28;20031;-73
2022/12/27 11:54:52;;;;;;;149.93;64.68;;;;;;;10.83;100.00;101622.31;5064733;28;20037;-72
2022/12/27 11:57:33;;;;;;;152.68;62.20;;;;;;;10.80;100.00;101626.94;5070650;28;20052;-72
2022/12/27 12:00:05;;;;;;;147.18;61.90;;;;;;;10.79;100.00;101625.28;5060216;28;20032;-71
2022/12/27 12:02:56;;;;;;;144.85;62.45;;;;;;;10.82;100.00;101619.84;5060304;28;20032;-72
2022/12/27 12:05:55;;;;;;;156.52;62.25;;;;;;;10.87;100.00;101622.91;5063770;28;20036;-72
2022/12/27 12:08:38;;;;;;;153.27;62.03;;;;;;;10.85;100.00;101620.44;5060202;28;20063;-72
2022/12/27 12:11:36;;;;;;;148.52;62.78;;;;;;;10.86;100.00;101611.66;5049020;28;20551;-72
2022/12/27 12:14:16;;;;;;;158.77;65.07;;;;;;;10.94;100.00;101609.28;5066429;28;20036;-72
2022/12/27 12:17:16;;;;;;;154.30;64.28;;;;;;;11.02;100.00;101602.63;5038965;28;20036;-72
2022/12/27 12:20:06;;;;;;;157.80;62.80;;;;;;;11.15;100.00;101608.56;5067008;28;20052;-72
2022/12/27 12:22:37;;;;;;;153.05;62.88;;;;;;;11.35;100.00;101618.22;5068051;28;20059;-72
2022/12/27 12:25:30;;;;;;;144.30;61.20;;;;;;;11.47;100.00;101617.25;5064333;28;20122;-73
2022/12/27 12:28:14;;;;;;;145.48;58.70;;;;;;;11.45;100.00;101610.50;5068645;28;20515;-73
2022/12/27 12:31:10;;;;;;;141.18;59.28;;;;;;;11.35;100.00;101613.00;5066849;28;20413;-72
2022/12/27 12:33:53;;;;;;;142.43;60.13;;;;;;;11.29;100.00;101619.56;5068169;28;20059;-72
2022/12/27 12:36:35;;;;;;;156.20;63.85;;;;;;;11.21;100.00;101613.28;5061481;28;20035;-72
2022/12/27 12:39:27;;;;;;;154.20;65.20;;;;;;;11.15;100.00;101613.78;5067333;28;20032;-72
2022/12/27 12:41:58;;;;;;;146.38;61.20;;;;;;;11.08;100.00;101615.19;5062063;28;20039;-72
2022/12/27 12:44:32;;;;;;;154.38;62.72;;;;;;;11.02;100.00;101613.06;5066158;28;20028;-72
2022/12/27 12:47:16;;;;;;;151.52;62.50;;;;;;;10.94;100.00;101619.69;5069666;28;20028;-71
2022/12/27 12:49:56;;;;;;;155.32;63.42;;;;;;;10.88;100.00;101609.75;5063801;28;20052;-71
2022/12/27 12:52:44;;;;;;;147.05;61.40;;;;;;;10.85;100.00;101615.22;5071073;28;20342;-71
2022/12/27 12:55:22;;;;;;;149.43;62.35;;;;;;;10.83;100.00;101616.28;5068509;28;20039;-72
2022/12/27 12:57:57;;;;;;;155.57;62.50;;;;;;;10.86;100.00;101605.63;5063582;28;20036;-71
2022/12/27 13:00:35;;;;;;;;;;;;;;;10.81;100.00;101603.38;5068498;28;20436;-73
2022/12/27 13:03:36;;;;;;;145.02;59.00;;;;;;;10.82;100.00;101606.81;5069542;28;19912;-72